Time;durP1;ratioP1;P1;durP2;ratioP2;P2;SDS_P1;SDS_P2;PMS_P1;PMS_P2;Temp;Humidity;BMP_temperature;BMP_pressure;BME280_temperature;BME280_humidity;BME280_pressure;Samples;Min_cycle;Max_cycle;Signal;HPM_P1;HPM_P2
2021/11/30 00:01:22;;;;;;;8.77;7.57;;;7.80;68.50;;;;;;5048705;28;20078;-75
2021/11/30 00:03:48;;;;;;;11.27;8.23;;;7.80;68.50;;;;;;5047026;28;20025;-75
2021/11/30 00:06:14;;;;;;;8.38;7.03;;;7.80;68.50;;;;;;5049109;28;20456;-74
2021/11/30 00:08:40;;;;;;;8.55;7.10;;;7.90;68.70;;;;;;5047993;28;20092;-74
2021/11/30 00:11:09;;;;;;;8.25;7.18;;;7.90;68.70;;;;;;5048194;28;20048;-84
2021/11/30 00:13:37;;;;;;;9.35;7.00;;;8.00;68.80;;;;;;5048751;28;20136;-83
2021/11/30 00:16:04;;;;;;;10.77;6.57;;;8.00;68.90;;;;;;5049917;28;20102;-79
2021/11/30 00:18:32;;;;;;;6.03;5.43;;;8.00;68.80;;;;;;5046326;28;20178;-82
2021/11/30 00:21:04;;;;;;;7.90;6.75;;;8.00;69.40;;;;;;5028797;28;20033;-83
2021/11/30 00:23:31;;;;;;;7.10;6.40;;;8.10;69.00;;;;;;5028311;28;20032;-75
2021/11/30 00:25:57;;;;;;;6.90;6.18;;;8.10;68.90;;;;;;5012941;28;20029;-80
2021/11/30 00:28:23;;;;;;;6.30;5.63;;;8.20;69.20;;;;;;5032427;28;20052;-83
2021/11/30 00:30:50;;;;;;;6.20;5.60;;;8.20;69.10;;;;;;5030796;28;20026;-90
2021/11/30 00:33:16;;;;;;;7.45;5.72;;;8.20;69.10;;;;;;4990386;28;1264347;-76
2021/11/30 00:35:43;;;;;;;8.48;6.03;;;8.30;69.30;;;;;;5031050;28;20069;-84
2021/11/30 00:38:13;;;;;;;6.53;5.38;;;8.30;69.30;;;;;;5029997;28;20057;-78
2021/11/30 00:40:44;;;;;;;8.00;5.95;;;8.30;69.30;;;;;;5029022;28;20436;-74
2021/11/30 00:43:18;;;;;;;6.57;5.35;;;8.30;69.30;;;;;;5032549;28;20044;-95
2021/11/30 00:46:33;;;;;;;6.85;5.50;;;8.30;69.30;;;;;;5030385;28;20044;-87
2021/11/30 00:48:31;;;;;;;6.45;5.13;;;8.30;69.30;;;;;;5021422;28;20033;-88
2021/11/30 00:51:10;;;;;;;5.50;4.38;;;8.40;69.40;;;;;;5013698;28;20033;-84
2021/11/30 00:53:37;;;;;;;8.57;4.45;;;8.40;69.40;;;;;;5030197;28;20032;-77
2021/11/30 00:56:05;;;;;;;7.00;5.15;;;8.40;69.40;;;;;;5012890;28;20465;-76
2021/11/30 00:58:32;;;;;;;6.20;4.57;;;8.50;69.60;;;;;;5029901;28;20039;-74
2021/11/30 01:00:58;;;;;;;5.57;4.07;;;8.50;69.60;;;;;;5035573;28;20519;-74
2021/11/30 01:03:24;;;;;;;6.05;5.13;;;8.50;69.60;;;;;;5040127;28;20029;-74
2021/11/30 01:05:49;;;;;;;4.50;3.95;;;8.50;69.60;;;;;;5041202;28;20029;-73
2021/11/30 01:08:15;;;;;;;4.90;4.22;;;8.50;69.60;;;;;;5037320;28;20061;-77
2021/11/30 01:10:41;;;;;;;5.03;4.20;;;8.50;69.60;;;;;;5036646;28;20064;-76
2021/11/30 01:13:07;;;;;;;4.40;4.00;;;8.60;69.70;;;;;;5043485;28;20025;-78
2021/11/30 01:15:34;;;;;;;5.20;4.53;;;8.60;69.70;;;;;;5046145;28;20101;-90
2021/11/30 01:18:00;;;;;;;6.13;4.25;;;8.60;69.70;;;;;;5031029;28;20087;-74
2021/11/30 01:20:26;;;;;;;5.03;3.78;;;8.60;69.70;;;;;;5049418;28;20033;-89
2021/11/30 01:22:53;;;;;;;4.93;3.92;;;8.70;69.90;;;;;;5052086;28;20033;-93
2021/11/30 01:25:20;;;;;;;5.75;4.07;;;8.70;69.90;;;;;;5071133;28;20083;-93
2021/11/30 01:27:47;;;;;;;4.75;3.92;;;8.70;69.90;;;;;;5069662;28;20028;-91
2021/11/30 01:30:15;;;;;;;4.90;3.75;;;8.70;69.90;;;;;;5036729;28;20037;-93
2021/11/30 01:32:43;;;;;;;5.22;4.18;;;8.80;70.00;;;;;;5030619;28;20144;-84
2021/11/30 01:35:10;;;;;;;4.07;3.67;;;8.80;70.00;;;;;;5029847;28;20125;-74
2021/11/30 01:37:38;;;;;;;5.20;3.58;;;8.80;69.90;;;;;;5029233;28;20547;-81
2021/11/30 01:40:07;;;;;;;7.57;4.47;;;8.80;69.90;;;;;;5044363;28;20037;-79
2021/11/30 01:42:34;;;;;;;4.72;3.40;;;8.80;69.90;;;;;;5048778;28;20048;-75
2021/11/30 01:45:08;;;;;;;7.82;5.75;;;8.90;70.00;;;;;;5048647;28;20025;-83
2021/11/30 01:50:40;;;;;;;5.68;4.20;;;8.90;70.00;;;;;;5009165;28;20037;-78
2021/11/30 01:53:07;;;;;;;4.43;3.40;;;8.90;70.00;;;;;;5005609;28;20057;-74
2021/11/30 01:55:33;;;;;;;5.05;3.78;;;8.90;70.00;;;;;;5026551;28;20045;-80
2021/11/30 01:58:00;;;;;;;5.30;3.55;;;8.90;70.00;;;;;;5051135;28;20487;-87
2021/11/30 02:00:27;;;;;;;5.15;3.65;;;8.90;70.00;;;;;;5048569;28;20116;-74
2021/11/30 02:02:53;;;;;;;4.80;3.85;;;8.90;70.00;;;;;;5046978;28;20135;-76
2021/11/30 02:05:19;;;;;;;5.65;3.78;;;8.90;70.00;;;;;;5046752;28;20029;-76
2021/11/30 02:07:45;;;;;;;5.30;3.83;;;8.90;70.10;;;;;;5048053;28;20032;-78
2021/11/30 02:10:14;;;;;;;3.92;3.42;;;9.00;70.20;;;;;;5046592;28;20037;-80
2021/11/30 02:12:42;;;;;;;4.07;3.40;;;9.00;70.20;;;;;;5047861;28;20400;-74
2021/11/30 02:15:11;;;;;;;4.38;3.90;;;9.00;70.20;;;;;;5045878;28;20057;-75
2021/11/30 02:17:38;;;;;;;4.78;3.42;;;9.00;70.20;;;;;;5047034;28;20036;-76
2021/11/30 02:20:05;;;;;;;4.85;3.33;;;9.00;70.20;;;;;;5047593;28;20338;-74
2021/11/30 02:22:31;;;;;;;4.30;3.50;;;9.10;70.30;;;;;;5029657;28;20204;-79
2021/11/30 02:24:58;;;;;;;3.67;3.20;;;9.10;70.30;;;;;;5047233;28;20044;-74
2021/11/30 02:27:24;;;;;;;5.05;3.15;;;9.10;70.30;;;;;;5047863;28;20032;-82
2021/11/30 02:29:50;;;;;;;3.97;3.38;;;9.10;70.30;;;;;;5047632;28;20128;-78
2021/11/30 02:32:16;;;;;;;6.65;3.42;;;9.10;70.80;;;;;;5048042;28;20076;-74
2021/11/30 02:34:42;;;;;;;4.15;2.83;;;9.10;70.50;;;;;;5049572;28;20029;-83
2021/11/30 02:37:12;;;;;;;3.78;2.42;;;9.20;70.50;;;;;;5048201;28;20400;-79
2021/11/30 02:39:39;;;;;;;3.42;2.92;;;9.10;70.30;;;;;;5047981;28;20029;-78
2021/11/30 02:42:08;;;;;;;5.10;2.90;;;9.20;70.50;;;;;;5048443;28;20025;-83
2021/11/30 02:44:35;;;;;;;3.30;2.42;;;9.20;70.50;;;;;;5048180;28;20064;-81
2021/11/30 02:47:09;;;;;;;3.45;3.15;;;9.20;70.50;;;;;;5049712;28;20070;-89
2021/11/30 02:49:38;;;;;;;4.53;2.83;;;9.20;70.50;;;;;;5051196;28;20396;-75
2021/11/30 02:52:11;;;;;;;2.75;2.33;;;9.20;70.50;;;;;;5051904;28;20028;-84
2021/11/30 02:54:43;;;;;;;7.15;3.10;;;9.20;70.50;;;;;;5050989;28;20028;-82
2021/11/30 02:57:11;;;;;;;3.90;2.50;;;9.30;70.70;;;;;;5051754;28;20040;-76
2021/11/30 02:59:44;;;;;;;3.67;2.58;;;9.30;70.70;;;;;;5052009;28;20384;-78
2021/11/30 03:02:25;;;;;;;2.85;2.55;;;9.20;71.00;;;;;;5051525;28;20175;-79
2021/11/30 03:04:57;;;;;;;6.03;2.30;;;9.30;70.60;;;;;;5054734;28;20036;-77
2021/11/30 03:07:26;;;;;;;2.30;2.10;;;9.30;70.60;;;;;;5053381;28;20495;-74
2021/11/30 03:09:53;;;;;;;5.63;2.70;;;9.40;70.70;;;;;;5057560;28;20036;-76
2021/11/30 03:12:19;;;;;;;3.42;2.53;;;9.40;70.70;;;;;;5063820;28;20032;-79
2021/11/30 03:14:45;;;;;;;2.85;2.30;;;9.30;70.50;;;;;;5059840;28;20079;-81
2021/11/30 03:17:13;;;;;;;3.28;2.33;;;9.40;70.70;;;;;;5051080;28;20037;-84
2021/11/30 03:19:39;;;;;;;4.68;2.67;;;9.40;70.70;;;;;;5052134;28;20492;-80
2021/11/30 03:22:06;;;;;;;2.60;2.20;;;9.40;70.70;;;;;;5051267;28;20396;-89
2021/11/30 03:24:32;;;;;;;4.75;2.78;;;9.40;70.70;;;;;;5052065;28;20028;-85
2021/11/30 03:26:59;;;;;;;2.58;2.33;;;9.40;70.70;;;;;;5051771;28;20033;-74
2021/11/30 03:29:25;;;;;;;3.97;2.58;;;9.40;70.70;;;;;;5052107;28;20372;-86
2021/11/30 03:33:58;;;;;;;4.60;2.13;;;9.40;70.70;;;;;;5052406;28;20438;-88
2021/11/30 03:34:38;;;;;;;3.20;2.33;;;9.50;70.90;;;;;;5052399;28;20045;-89
2021/11/30 03:37:09;;;;;;;4.03;2.53;;;9.40;70.70;;;;;;5054234;28;20132;-81
2021/11/30 03:39:36;;;;;;;5.10;2.88;;;9.50;70.90;;;;;;5052804;28;20472;-74
2021/11/30 03:42:02;;;;;;;5.50;2.08;;;9.50;70.90;;;;;;5050170;28;20032;-82
2021/11/30 03:44:29;;;;;;;2.65;1.88;;;9.50;70.90;;;;;;5052216;28;20150;-84
2021/11/30 03:46:56;;;;;;;3.05;2.10;;;9.50;70.90;;;;;;5051726;28;20494;-77
2021/11/30 03:49:22;;;;;;;4.78;2.53;;;9.50;70.90;;;;;;5050372;28;20031;-88
2021/11/30 03:51:49;;;;;;;3.28;1.80;;;9.60;71.10;;;;;;5051519;28;20384;-81
2021/11/30 03:54:16;;;;;;;2.40;2.10;;;9.50;70.90;;;;;;5051729;28;20032;-84
2021/11/30 03:56:42;;;;;;;3.90;2.42;;;9.50;70.90;;;;;;5050402;28;20044;-85
2021/11/30 03:59:08;;;;;;;3.88;2.50;;;9.60;71.10;;;;;;5051788;28;20033;-86
2021/11/30 04:01:34;;;;;;;2.45;2.20;;;9.60;71.10;;;;;;5049893;28;20048;-89
2021/11/30 04:04:02;;;;;;;2.45;2.25;;;9.60;71.00;;;;;;5051980;28;20442;-84
2021/11/30 04:06:28;;;;;;;3.60;2.60;;;9.60;71.50;;;;;;5050146;28;20116;-84
2021/11/30 04:08:54;;;;;;;5.22;2.58;;;9.70;71.10;;;;;;5051490;28;20067;-88
2021/11/30 04:11:21;;;;;;;4.95;2.88;;;9.70;71.10;;;;;;5050879;28;20587;-83
2021/11/30 04:13:48;;;;;;;4.93;3.10;;;9.70;71.10;;;;;;5051780;28;20029;-84
2021/11/30 04:16:14;;;;;;;4.35;2.60;;;9.70;71.10;;;;;;5051290;28;20041;-88
2021/11/30 04:18:40;;;;;;;4.53;2.53;;;9.70;71.00;;;;;;5051750;28;20021;-83
2021/11/30 04:21:06;;;;;;;4.80;2.78;;;9.70;71.10;;;;;;5050988;28;20495;-74
2021/11/30 04:23:33;;;;;;;6.00;3.70;;;9.70;71.60;;;;;;5050696;28;20059;-88
2021/11/30 04:25:59;;;;;;;5.68;3.00;;;9.70;71.00;;;;;;5051296;28;20538;-78
2021/11/30 04:28:26;;;;;;;5.95;2.97;;;9.70;71.00;;;;;;5051087;28;20033;-86
2021/11/30 04:30:52;;;;;;;4.43;2.63;;;9.80;71.20;;;;;;5050633;28;20100;-84
2021/11/30 04:33:18;;;;;;;3.13;2.67;;;9.80;71.20;;;;;;5051246;28;20132;-85
2021/11/30 04:35:44;;;;;;;3.35;2.40;;;9.80;71.20;;;;;;5050862;28;20025;-86
2021/11/30 04:38:10;;;;;;;4.18;3.10;;;9.80;71.20;;;;;;5050297;28;20056;-80
2021/11/30 04:40:36;;;;;;;5.13;2.72;;;9.80;71.20;;;;;;5052152;28;20029;-74
2021/11/30 04:43:02;;;;;;;5.28;2.80;;;9.80;71.20;;;;;;5056310;28;20029;-88
2021/11/30 04:48:14;;;;;;;4.93;3.10;;;9.80;71.20;;;;;;5055532;28;20024;-79
2021/11/30 04:50:43;;;;;;;3.35;2.63;;;9.80;71.20;;;;;;5055133;28;20067;-82
2021/11/30 04:53:09;;;;;;;4.40;2.80;;;9.90;71.30;;;;;;5053921;28;20131;-83
2021/11/30 04:55:35;;;;;;;2.35;2.15;;;9.90;71.30;;;;;;5054704;28;20574;-79
2021/11/30 04:58:04;;;;;;;2.67;2.47;;;9.80;71.20;;;;;;5054898;28;20037;-74
2021/11/30 05:00:32;;;;;;;5.43;2.47;;;9.90;71.40;;;;;;5055627;28;20079;-88
2021/11/30 05:02:59;;;;;;;2.97;2.50;;;9.90;71.40;;;;;;5054812;28;20448;-88
2021/11/30 05:05:25;;;;;;;3.25;2.40;;;9.90;71.40;;;;;;5054492;28;20473;-80
2021/11/30 05:07:51;;;;;;;4.90;2.60;;;9.90;71.40;;;;;;5037056;28;20493;-83
2021/11/30 05:10:19;;;;;;;4.05;2.85;;;9.90;71.40;;;;;;5054441;28;20075;-74
2021/11/30 05:12:46;;;;;;;4.32;3.22;;;9.90;71.40;;;;;;5053459;28;20044;-83
2021/11/30 05:15:13;;;;;;;4.07;2.35;;;9.90;71.40;;;;;;5053596;28;20029;-74
2021/11/30 05:17:41;;;;;;;4.57;2.33;;;9.90;71.40;;;;;;5055386;28;20040;-76
2021/11/30 05:20:08;;;;;;;2.55;2.28;;;9.90;71.40;;;;;;5053905;28;20025;-82
2021/11/30 05:22:34;;;;;;;3.95;2.47;;;10.00;71.60;;;;;;5053696;28;20171;-83
2021/11/30 05:25:00;;;;;;;4.50;2.63;;;9.90;71.40;;;;;;5054137;28;20027;-81
2021/11/30 05:27:27;;;;;;;4.60;2.28;;;10.00;71.60;;;;;;5048039;28;20461;-75
2021/11/30 05:29:54;;;;;;;3.78;2.42;;;10.00;71.60;;;;;;5042631;28;20025;-74
2021/11/30 05:32:20;;;;;;;3.67;2.28;;;10.00;71.60;;;;;;5033575;28;20064;-73
2021/11/30 05:34:47;;;;;;;6.07;2.35;;;10.00;71.60;;;;;;5033687;28;20061;-74
2021/11/30 05:37:13;;;;;;;4.82;2.35;;;10.00;71.60;;;;;;5039235;28;20040;-85
2021/11/30 05:39:40;;;;;;;2.70;2.10;;;10.10;71.80;;;;;;5042854;28;20385;-79
2021/11/30 05:42:07;;;;;;;4.25;3.03;;;10.00;71.60;;;;;;5034158;28;20124;-86
2021/11/30 05:44:33;;;;;;;4.82;2.40;;;10.10;71.80;;;;;;5037714;28;20022;-85
2021/11/30 05:46:59;;;;;;;3.10;2.35;;;10.10;71.80;;;;;;5038098;28;20056;-73
2021/11/30 05:49:26;;;;;;;3.38;2.28;;;10.10;71.80;;;;;;5029480;28;20038;-80
2021/11/30 05:51:53;;;;;;;3.75;2.13;;;10.10;71.80;;;;;;5028866;28;20025;-83
2021/11/30 05:54:19;;;;;;;3.30;2.60;;;10.10;71.80;;;;;;5031283;28;20064;-86
2021/11/30 05:56:45;;;;;;;5.07;2.70;;;10.10;71.80;;;;;;5030664;28;20535;-83
2021/11/30 05:59:14;;;;;;;4.35;2.13;;;10.20;72.00;;;;;;5045412;28;20036;-80
2021/11/30 06:01:41;;;;;;;5.05;3.38;;;10.10;71.80;;;;;;5031399;28;20049;-77
2021/11/30 06:04:07;;;;;;;5.63;2.28;;;10.10;71.90;;;;;;5049150;28;20042;-84
2021/11/30 06:06:36;;;;;;;3.70;2.80;;;10.10;71.90;;;;;;5050426;28;20062;-79
2021/11/30 06:09:05;;;;;;;4.15;2.63;;;10.20;72.10;;;;;;5048583;28;20028;-74
2021/11/30 06:11:31;;;;;;;4.90;2.28;;;10.20;72.10;;;;;;5048132;28;20060;-82
2021/11/30 06:13:58;;;;;;;3.20;2.10;;;10.20;72.10;;;;;;5033653;28;20424;-85
2021/11/30 06:16:25;;;;;;;4.78;2.58;;;10.20;72.10;;;;;;5029685;28;20040;-76
2021/11/30 06:18:52;;;;;;;2.95;2.10;;;10.20;72.10;;;;;;5041102;28;20427;-85
2021/11/30 06:21:18;;;;;;;5.07;2.33;;;10.20;72.70;;;;;;5029414;28;20083;-81
2021/11/30 06:23:46;;;;;;;4.68;2.53;;;10.20;72.10;;;;;;5027064;28;20045;-75
2021/11/30 06:26:13;;;;;;;4.20;2.10;;;10.30;72.30;;;;;;5028569;28;20266;-81
2021/11/30 06:28:39;;;;;;;3.05;1.90;;;10.20;72.10;;;;;;5047096;28;20074;-88
2021/11/30 06:31:07;;;;;;;3.17;2.50;;;10.30;72.30;;;;;;5043443;28;20625;-76
2021/11/30 06:33:33;;;;;;;2.90;1.90;;;10.30;72.30;;;;;;5038983;28;20515;-85
2021/11/30 06:35:59;;;;;;;3.22;2.42;;;10.30;72.30;;;;;;5026641;28;20040;-85
2021/11/30 06:38:26;;;;;;;3.47;2.53;;;10.30;72.30;;;;;;5031902;28;20036;-74
2021/11/30 06:40:53;;;;;;;4.40;2.25;;;10.30;72.30;;;;;;5029713;28;20068;-78
2021/11/30 06:43:19;;;;;;;3.30;1.92;;;10.30;72.40;;;;;;5036133;28;20033;-78
2021/11/30 06:45:46;;;;;;;2.20;1.90;;;10.40;72.60;;;;;;5027330;28;20495;-77
2021/11/30 06:48:12;;;;;;;5.05;2.67;;;10.40;72.70;;;;;;5035484;28;20091;-74
2021/11/30 06:50:38;;;;;;;3.13;2.80;;;10.40;72.70;;;;;;5047153;28;20032;-81
2021/11/30 06:53:04;;;;;;;7.03;2.30;;;10.40;72.70;;;;;;5046432;28;20036;-78
2021/11/30 06:55:30;;;;;;;2.95;2.38;;;10.40;72.80;;;;;;5046451;28;20025;-80
2021/11/30 06:57:56;;;;;;;4.10;2.60;;;10.50;72.90;;;;;;5045512;28;20601;-83
2021/11/30 07:00:23;;;;;;;4.05;2.13;;;10.50;73.00;;;;;;5046546;28;20036;-80
2021/11/30 07:02:51;;;;;;;4.07;2.60;;;10.50;73.00;;;;;;5039322;28;20438;-75
2021/11/30 07:05:25;;;;;;;3.25;2.28;;;10.50;73.00;;;;;;5046780;28;20035;-77
2021/11/30 07:08:11;;;;;;;3.40;2.80;;;10.50;73.10;;;;;;5035989;28;20446;-87
2021/11/30 07:15:39;;;;;;;4.43;2.80;;;10.50;73.00;;;;;;5039464;28;20453;-77
2021/11/30 07:18:05;;;;;;;4.45;3.00;;;10.50;73.00;;;;;;5036133;28;20033;-81
2021/11/30 07:20:31;;;;;;;4.18;2.80;;;10.60;73.20;;;;;;5032743;28;20029;-76
2021/11/30 07:22:58;;;;;;;5.53;2.75;;;10.60;73.20;;;;;;5039980;28;20250;-76
2021/11/30 07:25:27;;;;;;;5.65;3.10;;;10.60;73.20;;;;;;5026787;28;20029;-82
2021/11/30 07:27:53;;;;;;;6.32;3.20;;;10.60;73.20;;;;;;5025812;28;20022;-80
2021/11/30 07:30:20;;;;;;;3.95;2.88;;;10.60;73.10;;;;;;5031779;28;20107;-81
2021/11/30 07:32:47;;;;;;;6.15;3.20;;;10.60;73.10;;;;;;5040069;28;20045;-79
2021/11/30 07:35:14;;;;;;;4.75;2.97;;;10.60;73.10;;;;;;5035281;28;20032;-77
2021/11/30 07:37:40;;;;;;;4.00;3.60;;;10.60;73.20;;;;;;5027456;28;20068;-77
2021/11/30 07:40:07;;;;;;;4.47;3.38;;;10.70;73.30;;;;;;5040563;28;20115;-85
2021/11/30 07:42:33;;;;;;;4.88;3.45;;;10.70;73.30;;;;;;5039012;28;20037;-86
2021/11/30 07:45:00;;;;;;;5.88;3.55;;;10.70;73.30;;;;;;5044641;28;20381;-82
2021/11/30 07:47:26;;;;;;;6.05;3.45;;;10.70;73.40;;;;;;5045640;28;20037;-80
2021/11/30 07:49:52;;;;;;;4.82;3.75;;;10.70;73.30;;;;;;5024081;28;20113;-88
2021/11/30 07:52:18;;;;;;;4.93;3.50;;;10.70;73.40;;;;;;5023673;28;20271;-75
2021/11/30 07:54:46;;;;;;;6.30;3.53;;;10.70;73.40;;;;;;5023123;28;20408;-75
2021/11/30 07:57:12;;;;;;;5.53;3.53;;;10.70;73.40;;;;;;5023194;28;20037;-77
2021/11/30 07:59:39;;;;;;;3.95;3.03;;;10.70;73.40;;;;;;5042115;28;20555;-75
2021/11/30 08:02:06;;;;;;;4.78;3.15;;;10.80;73.60;;;;;;5040014;28;20029;-75
2021/11/30 08:04:32;;;;;;;3.72;2.97;;;10.80;73.60;;;;;;5037077;28;20112;-76
2021/11/30 08:06:58;;;;;;;3.05;2.65;;;10.80;73.60;;;;;;5029989;28;20041;-78
2021/11/30 08:09:26;;;;;;;3.78;3.00;;;10.80;73.60;;;;;;5047917;28;20025;-76
2021/11/30 08:11:52;;;;;;;4.07;2.92;;;10.80;73.50;;;;;;5046063;28;20526;-75
2021/11/30 08:14:19;;;;;;;4.22;2.47;;;10.80;73.50;;;;;;5045777;28;20033;-76
2021/11/30 08:16:45;;;;;;;5.65;3.17;;;10.80;73.50;;;;;;5049702;28;20068;-75
2021/11/30 08:19:11;;;;;;;6.05;3.15;;;10.90;73.70;;;;;;5062870;28;20035;-75
2021/11/30 08:21:38;;;;;;;3.22;2.40;;;10.90;73.70;;;;;;5069504;28;20042;-75
2021/11/30 08:24:04;;;;;;;5.28;2.92;;;10.90;73.60;;;;;;5054632;28;20037;-74
2021/11/30 08:26:31;;;;;;;4.97;3.00;;;10.90;73.60;;;;;;5048632;28;20029;-73
2021/11/30 08:28:56;;;;;;;7.32;3.15;;;10.90;73.60;;;;;;5049793;28;20029;-75
2021/11/30 08:31:22;;;;;;;9.50;4.57;;;10.90;73.60;;;;;;5048411;28;20120;-89
2021/11/30 08:33:48;;;;;;;3.47;3.17;;;10.90;73.60;;;;;;5049068;28;20037;-75
2021/11/30 08:36:14;;;;;;;5.22;3.00;;;11.00;73.80;;;;;;5049459;28;20494;-76
2021/11/30 08:38:41;;;;;;;3.05;2.65;;;10.90;73.60;;;;;;5048948;28;20065;-75
2021/11/30 08:41:07;;;;;;;4.97;2.60;;;10.90;73.60;;;;;;5049056;28;20032;-82
2021/11/30 08:43:33;;;;;;;2.90;2.58;;;11.00;73.80;;;;;;5050214;28;20044;-82
2021/11/30 08:45:59;;;;;;;3.20;2.90;;;11.00;73.70;;;;;;5050236;28;20037;-78
2021/11/30 08:48:25;;;;;;;5.18;3.10;;;11.00;73.80;;;;;;5049344;28;20037;-90
2021/11/30 08:50:56;;;;;;;4.72;2.80;;;11.00;73.70;;;;;;5053110;28;20037;-85
2021/11/30 08:53:24;;;;;;;4.18;2.47;;;11.00;73.70;;;;;;5049967;28;20430;-77
2021/11/30 08:55:50;;;;;;;6.57;3.20;;;11.00;73.70;;;;;;5049612;28;20717;-80
2021/11/30 08:58:16;;;;;;;4.35;2.75;;;11.10;73.80;;;;;;5042097;28;20381;-78
2021/11/30 09:00:42;;;;;;;4.25;2.92;;;11.10;73.80;;;;;;5041817;28;20090;-78
2021/11/30 09:03:08;;;;;;;5.10;3.03;;;11.10;73.80;;;;;;5047487;28;20499;-80
2021/11/30 09:05:34;;;;;;;6.47;3.05;;;11.10;73.80;;;;;;5044487;28;20021;-75
2021/11/30 09:08:01;;;;;;;3.60;2.88;;;11.10;73.80;;;;;;5043685;28;20036;-84
2021/11/30 09:10:27;;;;;;;5.10;2.78;;;11.20;74.00;;;;;;5041815;28;20030;-82
2021/11/30 09:12:53;;;;;;;4.13;3.05;;;11.20;73.90;;;;;;5033699;28;20025;-76
2021/11/30 09:15:19;;;;;;;3.95;3.08;;;11.20;73.90;;;;;;5048032;28;20039;-75
2021/11/30 09:17:46;;;;;;;6.55;3.08;;;11.20;73.90;;;;;;5049057;28;20037;-81
2021/11/30 09:20:12;;;;;;;4.53;3.72;;;11.20;73.90;;;;;;5048444;28;20029;-75
2021/11/30 09:22:39;;;;;;;4.38;2.95;;;11.20;73.80;;;;;;5051046;28;20039;-81
2021/11/30 09:25:06;;;;;;;5.90;4.07;;;11.20;73.80;;;;;;5047473;28;20027;-84
2021/11/30 09:27:33;;;;;;;5.10;3.33;;;11.30;74.00;;;;;;5048259;28;20029;-79
2021/11/30 09:30:00;;;;;;;4.72;3.10;;;11.30;74.00;;;;;;5029240;28;20662;-75
2021/11/30 09:32:30;;;;;;;7.10;3.20;;;11.30;73.90;;;;;;5029908;28;20055;-75
2021/11/30 09:35:00;;;;;;;4.53;3.65;;;11.30;73.90;;;;;;5011228;28;20064;-83
2021/11/30 09:37:27;;;;;;;5.38;3.40;;;11.40;74.10;;;;;;5030313;28;20033;-78
2021/11/30 09:39:53;;;;;;;4.70;3.30;;;11.40;74.00;;;;;;5030016;28;20029;-80
2021/11/30 09:42:19;;;;;;;7.82;3.47;;;11.40;74.00;;;;;;5030479;28;20044;-76
2021/11/30 09:44:47;;;;;;;4.60;2.85;;;11.40;73.90;;;;;;5049666;28;20025;-83
2021/11/30 09:47:14;;;;;;;4.57;3.10;;;11.50;74.10;;;;;;5047603;28;20036;-77
2021/11/30 09:49:41;;;;;;;4.85;3.50;;;11.50;74.10;;;;;;5048640;28;20238;-79
2021/11/30 09:52:08;;;;;;;6.50;3.33;;;11.50;74.00;;;;;;5048445;28;20332;-82
2021/11/30 09:54:34;;;;;;;3.95;3.25;;;11.40;73.80;;;;;;5048848;28;20033;-80
2021/11/30 09:57:02;;;;;;;4.85;3.63;;;11.50;74.00;;;;;;5047778;28;20041;-75
2021/11/30 09:59:28;;;;;;;4.30;3.35;;;11.50;74.00;;;;;;5049488;28;20120;-78
2021/11/30 10:01:54;;;;;;;5.00;3.20;;;11.60;74.10;;;;;;5048523;28;20029;-76
2021/11/30 10:04:22;;;;;;;4.53;3.25;;;11.60;74.10;;;;;;5048575;28;20116;-81
2021/11/30 10:06:48;;;;;;;5.13;3.28;;;11.60;74.00;;;;;;5046215;28;20057;-76
2021/11/30 10:09:24;;;;;;;5.13;2.97;;;11.70;74.20;;;;;;5048850;28;20286;-82
2021/11/30 10:12:09;;;;;;;7.35;3.45;;;11.70;74.10;;;;;;5029742;28;20036;-79
2021/11/30 10:14:40;;;;;;;8.52;4.07;;;11.70;74.50;;;;;;5028578;28;20064;-74
2021/11/30 10:17:22;;;;;;;6.82;3.00;;;11.90;75.00;;;;;;5036061;28;20041;-77
2021/11/30 10:19:55;;;;;;;10.50;3.47;;;12.00;75.30;;;;;;5063319;28;20248;-74
2021/11/30 10:22:51;;;;;;;6.75;2.63;;;12.20;75.50;;;;;;5048549;28;20085;-79
2021/11/30 10:25:21;;;;;;;6.53;3.42;;;12.30;75.50;;;;;;5049284;28;20035;-86
2021/11/30 10:27:52;;;;;;;6.13;3.00;;;12.30;75.30;;;;;;5052318;28;20063;-80
2021/11/30 10:30:24;;;;;;;4.20;2.55;;;12.40;75.40;;;;;;5033047;28;20037;-80
2021/11/30 10:32:52;;;;;;;5.80;2.95;;;12.50;75.50;;;;;;5047936;28;20045;-77
2021/11/30 10:35:21;;;;;;;4.15;2.67;;;12.50;75.40;;;;;;5049911;28;20037;-78
2021/11/30 10:37:48;;;;;;;3.08;2.78;;;12.60;75.60;;;;;;5048036;28;20043;-79
2021/11/30 10:40:22;;;;;;;4.10;2.28;;;12.50;75.40;;;;;;5047837;28;20234;-85
2021/11/30 10:42:56;;;;;;;4.10;2.67;;;12.60;75.40;;;;;;5048183;28;20036;-77
2021/11/30 10:45:39;;;;;;;3.42;2.47;;;12.60;75.40;;;;;;5054281;28;20499;-78
2021/11/30 10:48:17;;;;;;;2.70;2.50;;;12.60;75.30;;;;;;5058225;28;20113;-81
2021/11/30 10:50:52;;;;;;;3.67;2.75;;;12.70;75.40;;;;;;5038574;28;20112;-82
2021/11/30 10:53:25;;;;;;;4.53;2.20;;;12.70;75.30;;;;;;5062086;28;20025;-78
2021/11/30 10:55:57;;;;;;;4.53;2.20;;;12.70;75.30;;;;;;5066138;28;20580;-75
2021/11/30 10:58:27;;;;;;;5.63;2.50;;;12.70;75.20;;;;;;5061757;28;20067;-81
2021/11/30 11:00:57;;;;;;;4.47;2.95;;;12.70;75.10;;;;;;5062631;28;20083;-78
2021/11/30 11:03:24;;;;;;;5.43;4.25;;;12.70;75.10;;;;;;5056389;28;20037;-86
2021/11/30 11:08:46;;;;;;;3.45;2.72;;;12.70;75.00;;;;;;5053298;28;20050;-86
2021/11/30 11:11:20;;;;;;;4.03;2.22;;;12.80;75.10;;;;;;5052813;28;20033;-85
2021/11/30 11:13:47;;;;;;;3.22;2.25;;;12.80;75.00;;;;;;5066081;28;20032;-85
2021/11/30 11:16:36;;;;;;;4.40;2.55;;;12.80;75.00;;;;;;5073550;28;20392;-87
2021/11/30 11:19:07;;;;;;;4.68;2.53;;;12.80;75.00;;;;;;5049065;28;20093;-81
2021/11/30 11:21:35;;;;;;;4.20;2.38;;;12.90;75.10;;;;;;5057394;28;20120;-79
2021/11/30 11:24:29;;;;;;;5.97;2.53;;;12.80;74.80;;;;;;5051972;28;20114;-76
2021/11/30 11:26:56;;;;;;;6.35;3.25;;;12.90;75.10;;;;;;5058383;28;20028;-81
2021/11/30 11:29:26;;;;;;;6.72;2.40;;;12.90;75.00;;;;;;5065012;28;20037;-83
2021/11/30 11:31:58;;;;;;;7.78;2.30;;;12.90;75.00;;;;;;5061003;28;20071;-81
2021/11/30 11:34:27;;;;;;;3.83;2.22;;;13.00;75.10;;;;;;5054800;28;20645;-78
2021/11/30 11:36:55;;;;;;;4.00;2.05;;;13.00;75.00;;;;;;5058432;28;20040;-78
2021/11/30 11:39:23;;;;;;;4.47;1.90;;;13.10;75.10;;;;;;5058570;28;20028;-90
2021/11/30 11:41:52;;;;;;;6.25;2.20;;;13.00;74.90;;;;;;5070824;28;20043;-87
2021/11/30 11:44:19;;;;;;;7.57;1.75;;;13.00;74.80;;;;;;5038345;28;20125;-89
2021/11/30 11:46:47;;;;;;;5.50;2.22;;;13.00;74.90;;;;;;5029132;28;20430;-78
2021/11/30 11:49:22;;;;;;;3.35;1.67;;;13.00;75.10;;;;;;5035024;28;20450;-84
2021/11/30 11:51:51;;;;;;;5.68;2.40;;;13.10;75.40;;;;;;5033490;28;20466;-75
2021/11/30 11:54:30;;;;;;;3.28;1.85;;;13.10;75.40;;;;;;5035877;28;20037;-75
2021/11/30 11:57:03;;;;;;;5.40;3.35;;;13.10;75.50;;;;;;5030770;28;20052;-74
2021/11/30 11:59:43;;;;;;;5.10;2.25;;;13.20;75.60;;;;;;5030256;28;20041;-75
2021/11/30 12:02:15;;;;;;;2.53;1.90;;;13.20;75.50;;;;;;5029957;28;20033;-74
2021/11/30 12:04:43;;;;;;;3.33;2.15;;;13.20;75.40;;;;;;5031699;28;20467;-75
2021/11/30 12:07:09;;;;;;;4.03;1.50;;;13.20;75.30;;;;;;5024855;28;20599;-89
2021/11/30 12:09:36;;;;;;;3.67;1.80;;;13.20;75.30;;;;;;5044379;28;20409;-76
2021/11/30 12:12:11;;;;;;;4.80;1.70;;;13.20;75.30;;;;;;5040817;28;20029;-89
2021/11/30 12:14:44;;;;;;;4.68;1.80;;;13.20;75.20;;;;;;5043125;28;20040;-77
2021/11/30 12:17:11;;;;;;;2.97;1.48;;;13.20;75.20;;;;;;5043465;28;20539;-77
2021/11/30 12:19:43;;;;;;;3.90;2.33;;;13.20;75.30;;;;;;5044464;28;20034;-86
2021/11/30 12:22:34;;;;;;;5.00;1.83;;;13.10;75.10;;;;;;5042845;28;20037;-83
2021/11/30 12:25:04;;;;;;;6.13;2.78;;;13.20;75.30;;;;;;5033278;28;20071;-83
2021/11/30 12:27:30;;;;;;;5.80;1.65;;;13.10;75.10;;;;;;5040885;28;20034;-89
2021/11/30 12:29:56;;;;;;;3.63;1.75;;;13.10;75.10;;;;;;5062060;28;20124;-81
2021/11/30 12:32:31;;;;;;;3.35;1.88;;;13.10;75.10;;;;;;5060393;28;20044;-85
2021/11/30 12:35:01;;;;;;;3.50;1.45;;;13.10;75.10;;;;;;5058393;28;20102;-85
2021/11/30 12:37:31;;;;;;;3.45;2.17;;;13.20;75.30;;;;;;5057547;28;20037;-79
2021/11/30 12:40:11;;;;;;;3.70;1.55;;;13.10;75.10;;;;;;5050851;28;20521;-75
2021/11/30 12:42:40;;;;;;;4.85;2.22;;;13.20;75.20;;;;;;5048182;28;20037;-75
2021/11/30 12:45:14;;;;;;;3.47;1.60;;;13.20;75.20;;;;;;5029774;28;20481;-76
2021/11/30 12:47:40;;;;;;;3.00;1.90;;;13.20;75.20;;;;;;5032287;28;20435;-75
2021/11/30 12:50:27;;;;;;;3.58;1.88;;;13.20;75.20;;;;;;5051283;28;20029;-75
2021/11/30 12:53:04;;;;;;;2.78;1.42;;;13.20;75.20;;;;;;5033350;28;20395;-76
2021/11/30 12:55:47;;;;;;;3.63;1.60;;;13.20;75.10;;;;;;5051902;28;20339;-76
2021/11/30 12:58:37;;;;;;;4.03;1.30;;;13.20;75.10;;;;;;5049167;28;20126;-77
2021/11/30 13:01:23;;;;;;;4.13;1.60;;;13.20;75.10;;;;;;5052142;28;20484;-74
2021/11/30 13:04:11;;;;;;;3.08;1.48;;;13.30;75.40;;;;;;5052501;28;20518;-77
2021/11/30 13:07:02;;;;;;;2.80;1.42;;;13.30;75.30;;;;;;5053195;28;20033;-75
2021/11/30 13:09:41;;;;;;;2.90;1.70;;;13.30;75.30;;;;;;5054983;28;20074;-78
2021/11/30 13:12:11;;;;;;;2.22;1.48;;;13.30;75.30;;;;;;5052859;28;20171;-75